Time;durP1;ratioP1;P1;durP2;ratioP2;P2;SDS_P1;SDS_P2;PMS_P1;PMS_P2;Temp;Humidity;BMP_temperature;BMP_pressure;BME280_temperature;BME280_humidity;BME280_pressure;Samples;Min_cycle;Max_cycle;Signal;HPM_P1;HPM_P2
2023/10/25 00:01:10;;;;;;;23.20;22.40;;;12.00;99.90;;;;;;5033214;28;20235;-61
2023/10/25 00:03:38;;;;;;;23.47;22.67;;;12.00;99.90;;;;;;5033560;28;20247;-62
2023/10/25 00:06:04;;;;;;;23.93;23.10;;;12.00;99.90;;;;;;5033695;28;20204;-62
2023/10/25 00:08:31;;;;;;;23.93;23.13;;;12.00;99.90;;;;;;5033656;28;20212;-60
2023/10/25 00:11:03;;;;;;;31.77;30.70;;;12.00;99.90;;;;;;5033490;28;20213;-62
2023/10/25 00:13:30;;;;;;;26.73;25.83;;;12.00;99.90;;;;;;5032422;28;20255;-60
2023/10/25 00:15:57;;;;;;;26.47;25.47;;;12.00;99.90;;;;;;5033145;28;20217;-60
2023/10/25 00:18:24;;;;;;;25.73;24.83;;;12.00;99.90;;;;;;5033232;28;20667;-61
2023/10/25 00:20:51;;;;;;;30.37;29.30;;;12.00;99.90;;;;;;5031982;28;20267;-61
2023/10/25 00:23:19;;;;;;;28.93;27.93;;;12.00;99.90;;;;;;5032997;28;20722;-60
2023/10/25 00:25:45;;;;;;;27.10;26.20;;;12.00;99.90;;;;;;5032436;28;20236;-60
2023/10/25 00:28:13;;;;;;;27.60;26.60;;;12.00;99.90;;;;;;5032663;28;20239;-63
2023/10/25 00:30:40;;;;;;;26.37;25.47;;;12.00;99.90;;;;;;5032895;28;20227;-61
2023/10/25 00:33:07;;;;;;;27.70;26.73;;;12.00;99.90;;;;;;5033064;28;20236;-63
2023/10/25 00:35:33;;;;;;;26.67;25.77;;;12.00;99.90;;;;;;5033205;28;20671;-62
2023/10/25 00:38:00;;;;;;;24.67;23.83;;;12.00;99.90;;;;;;5032803;28;20220;-61
2023/10/25 00:40:27;;;;;;;25.57;24.67;;;12.00;99.90;;;;;;5033036;28;20581;-60
2023/10/25 00:42:58;;;;;;;25.80;24.90;;;12.00;99.90;;;;;;5032368;28;20243;-61
2023/10/25 00:45:26;;;;;;;21.53;20.80;;;12.00;99.90;;;;;;5033096;28;20231;-61
2023/10/25 00:47:53;;;;;;;26.73;25.83;;;12.10;99.90;;;;;;5032500;28;20667;-61
2023/10/25 00:50:20;;;;;;;24.23;23.40;;;12.10;99.90;;;;;;5032414;28;20212;-62
2023/10/25 00:52:47;;;;;;;26.17;25.27;;;12.10;99.90;;;;;;5032212;28;20228;-60
2023/10/25 00:55:13;;;;;;;29.93;28.93;;;12.10;99.90;;;;;;5032231;28;20215;-62
2023/10/25 00:57:40;;;;;;;25.87;24.97;;;12.10;99.90;;;;;;5032494;28;20228;-61
2023/10/25 01:00:09;;;;;;;26.67;25.77;;;12.10;99.90;;;;;;5033195;28;20259;-61
2023/10/25 01:02:37;;;;;;;22.17;21.37;;;12.10;99.90;;;;;;5032998;28;20264;-62
2023/10/25 01:05:05;;;;;;;22.00;21.23;;;12.10;99.90;;;;;;5035254;28;20209;-63
2023/10/25 01:07:31;;;;;;;23.13;22.33;;;12.10;99.90;;;;;;5035899;28;20216;-62
2023/10/25 01:09:58;;;;;;;24.07;23.27;;;12.10;99.90;;;;;;5032765;28;20288;-62
2023/10/25 01:12:25;;;;;;;24.27;23.47;;;12.10;99.90;;;;;;5032156;28;20730;-62
2023/10/25 01:14:52;;;;;;;24.37;23.53;;;12.10;99.90;;;;;;5032218;28;20236;-61
2023/10/25 01:17:19;;;;;;;23.47;22.67;;;12.10;99.90;;;;;;5032029;28;20676;-62
2023/10/25 01:19:47;;;;;;;22.27;21.50;;;12.10;99.90;;;;;;5031939;28;20590;-61
2023/10/25 01:22:13;;;;;;;22.03;21.27;;;12.10;99.90;;;;;;5031699;28;20240;-62
2023/10/25 01:24:42;;;;;;;22.00;21.27;;;12.10;99.90;;;;;;5031907;28;20213;-61
2023/10/25 01:27:09;;;;;;;23.70;22.90;;;12.10;99.90;;;;;;5031725;28;20215;-62
2023/10/25 01:29:36;;;;;;;21.63;20.87;;;12.00;99.90;;;;;;5032100;28;20588;-62
2023/10/25 01:32:03;;;;;;;21.53;20.77;;;12.10;99.90;;;;;;5034669;28;20235;-61
2023/10/25 01:34:29;;;;;;;20.37;19.67;;;12.10;99.90;;;;;;5035537;28;20239;-60
2023/10/25 01:36:56;;;;;;;22.27;21.50;;;12.00;99.90;;;;;;5034440;28;20220;-61
2023/10/25 01:39:23;;;;;;;22.47;21.70;;;12.00;99.90;;;;;;5034261;28;20216;-62
2023/10/25 01:41:51;;;;;;;23.20;22.40;;;12.00;99.90;;;;;;5034748;28;20232;-64
2023/10/25 01:44:17;;;;;;;22.97;22.17;;;12.10;99.90;;;;;;5030400;28;20204;-61
2023/10/25 01:46:44;;;;;;;22.73;21.97;;;12.10;99.90;;;;;;5034312;28;20208;-59
2023/10/25 01:49:11;;;;;;;24.70;23.83;;;12.10;99.90;;;;;;5032133;28;20672;-63
2023/10/25 01:51:37;;;;;;;21.67;20.93;;;12.00;99.90;;;;;;5031189;28;20220;-62
2023/10/25 01:54:05;;;;;;;22.80;22.03;;;12.00;99.90;;;;;;5031057;28;20233;-61
2023/10/25 01:56:31;;;;;;;20.30;19.60;;;12.10;99.90;;;;;;5031431;28;20219;-62
2023/10/25 01:58:59;;;;;;;20.27;19.57;;;12.10;99.90;;;;;;5031068;28;20292;-61
2023/10/25 02:01:26;;;;;;;21.63;20.80;;;12.00;99.90;;;;;;5030703;28;20806;-63
2023/10/25 02:03:53;;;;;;;21.77;21.00;;;12.10;99.90;;;;;;5031642;28;20236;-62
2023/10/25 02:06:19;;;;;;;20.77;20.07;;;12.00;99.90;;;;;;5031083;28;20212;-62
2023/10/25 02:08:46;;;;;;;21.90;21.17;;;12.00;99.90;;;;;;5031091;28;20209;-61
2023/10/25 02:11:13;;;;;;;19.77;19.10;;;12.00;99.90;;;;;;5030843;28;20209;-61
2023/10/25 02:13:39;;;;;;;21.87;21.13;;;12.00;99.90;;;;;;5030711;28;20232;-61
2023/10/25 02:16:15;;;;;;;22.10;21.33;;;12.00;99.90;;;;;;5030400;28;20255;-61
2023/10/25 02:18:42;;;;;;;20.17;19.50;;;12.00;99.90;;;;;;5030829;28;20326;-60
2023/10/25 02:21:10;;;;;;;22.53;21.77;;;12.00;99.90;;;;;;5030452;28;20215;-61
2023/10/25 02:23:36;;;;;;;20.73;20.03;;;12.00;99.90;;;;;;5030794;28;20698;-60
2023/10/25 02:26:03;;;;;;;20.07;19.37;;;12.00;99.90;;;;;;5030426;28;20212;-61
2023/10/25 02:28:30;;;;;;;19.37;18.70;;;12.00;99.90;;;;;;5030334;28;20216;-60
2023/10/25 02:30:56;;;;;;;21.37;20.63;;;12.00;99.90;;;;;;5030271;28;20215;-60
2023/10/25 02:33:24;;;;;;;21.17;20.47;;;12.00;99.90;;;;;;5030206;28;20231;-61
2023/10/25 02:35:53;;;;;;;22.03;21.30;;;12.00;99.90;;;;;;5030544;28;20216;-61
2023/10/25 02:38:20;;;;;;;19.27;18.60;;;12.00;99.90;;;;;;5030811;28;20208;-61
2023/10/25 02:40:46;;;;;;;19.77;19.03;;;12.00;99.90;;;;;;5030754;28;20216;-61
2023/10/25 02:43:13;;;;;;;18.87;18.27;;;12.00;99.90;;;;;;5030025;28;20240;-62
2023/10/25 02:45:40;;;;;;;19.87;19.17;;;12.00;99.90;;;;;;5030866;28;20212;-63
2023/10/25 02:48:12;;;;;;;20.07;19.37;;;12.00;99.90;;;;;;5030521;28;20209;-61
2023/10/25 02:50:40;;;;;;;21.80;21.07;;;12.00;99.90;;;;;;5030760;28;20286;-63
2023/10/25 02:53:07;;;;;;;19.90;19.20;;;11.90;99.90;;;;;;5030480;28;20235;-60
2023/10/25 02:55:34;;;;;;;22.67;21.90;;;12.00;99.90;;;;;;5030474;28;20219;-62
2023/10/25 02:58:02;;;;;;;23.33;22.53;;;12.00;99.90;;;;;;5030542;28;20217;-60
2023/10/25 03:00:28;;;;;;;22.03;21.27;;;11.90;99.90;;;;;;5030287;28;20220;-60
2023/10/25 03:02:55;;;;;;;24.43;23.57;;;11.90;99.90;;;;;;5030194;28;20233;-60
2023/10/25 03:05:22;;;;;;;22.33;21.57;;;11.90;99.90;;;;;;5025319;28;20219;-62
2023/10/25 03:07:50;;;;;;;20.83;20.13;;;11.90;99.90;;;;;;5030414;28;20311;-62
2023/10/25 03:10:17;;;;;;;21.23;20.53;;;11.90;99.90;;;;;;5030672;28;20217;-61
2023/10/25 03:12:43;;;;;;;21.27;20.53;;;11.90;99.90;;;;;;5036253;28;20221;-63
2023/10/25 03:15:11;;;;;;;20.17;19.47;;;11.80;99.90;;;;;;5035498;28;20212;-62
2023/10/25 03:17:37;;;;;;;21.70;20.90;;;11.80;99.90;;;;;;5035031;28;20683;-62
2023/10/25 03:20:05;;;;;;;21.37;20.57;;;11.70;99.90;;;;;;5030202;28;20590;-61
2023/10/25 03:22:32;;;;;;;23.20;22.40;;;11.70;99.90;;;;;;5030030;28;20294;-61
2023/10/25 03:25:00;;;;;;;20.20;19.50;;;11.60;99.90;;;;;;5027192;28;20212;-62
2023/10/25 03:27:27;;;;;;;20.27;19.57;;;11.50;99.90;;;;;;5030377;28;20213;-62
2023/10/25 03:29:54;;;;;;;21.77;20.97;;;11.50;99.90;;;;;;5030060;28;20652;-61
2023/10/25 03:32:20;;;;;;;22.63;21.87;;;11.50;99.90;;;;;;5028883;28;20228;-60
2023/10/25 03:34:51;;;;;;;22.07;21.33;;;11.50;99.90;;;;;;5028075;28;20954;-61
2023/10/25 03:37:18;;;;;;;20.23;19.53;;;11.50;99.90;;;;;;5030657;28;20212;-63
2023/10/25 03:39:44;;;;;;;21.97;21.23;;;11.40;99.90;;;;;;5031141;28;20208;-62
2023/10/25 03:42:12;;;;;;;22.73;21.90;;;11.40;99.90;;;;;;5031460;28;20255;-61
2023/10/25 03:44:39;;;;;;;23.00;22.23;;;11.40;99.90;;;;;;5031525;28;20216;-62
2023/10/25 03:47:06;;;;;;;24.17;23.33;;;11.40;99.90;;;;;;5030272;28;20227;-62
2023/10/25 03:49:33;;;;;;;22.67;21.90;;;11.40;99.90;;;;;;5030926;28;20220;-62
2023/10/25 03:52:00;;;;;;;24.57;23.70;;;11.40;99.90;;;;;;5047017;28;20223;-60
2023/10/25 03:54:26;;;;;;;22.57;21.77;;;11.40;99.90;;;;;;5048110;28;20205;-63
2023/10/25 03:56:53;;;;;;;23.00;22.23;;;11.40;99.90;;;;;;5043531;28;20234;-62
2023/10/25 03:59:21;;;;;;;23.03;22.20;;;11.30;99.90;;;;;;5041697;28;20216;-61
2023/10/25 04:01:48;;;;;;;21.37;20.67;;;11.30;99.90;;;;;;5041809;28;20227;-61
2023/10/25 04:04:14;;;;;;;23.00;22.20;;;11.20;99.90;;;;;;5034185;28;20215;-62
2023/10/25 04:06:41;;;;;;;23.77;22.97;;;11.20;99.90;;;;;;5034059;28;20212;-62
2023/10/25 04:09:09;;;;;;;29.80;28.77;;;11.10;99.90;;;;;;5033622;28;20212;-60
2023/10/25 04:11:35;;;;;;;27.40;26.40;;;11.10;99.90;;;;;;5033551;28;20236;-61
2023/10/25 04:14:02;;;;;;;24.30;23.47;;;11.10;99.90;;;;;;5033646;28;20224;-62
2023/10/25 04:16:30;;;;;;;24.30;23.40;;;11.00;99.90;;;;;;5037492;28;20220;-61
2023/10/25 04:18:57;;;;;;;25.00;24.13;;;11.10;99.90;;;;;;5036894;28;20216;-63
2023/10/25 04:21:24;;;;;;;21.43;20.70;;;11.00;99.90;;;;;;5039358;28;20205;-61
2023/10/25 04:23:50;;;;;;;22.13;21.33;;;11.00;99.90;;;;;;5037528;28;20236;-61
2023/10/25 04:26:17;;;;;;;21.27;20.53;;;10.90;99.90;;;;;;5037511;28;20663;-62
2023/10/25 04:28:45;;;;;;;22.63;21.87;;;11.00;99.90;;;;;;5040029;28;20216;-60
2023/10/25 04:31:12;;;;;;;22.80;22.03;;;11.00;99.90;;;;;;5039418;28;20216;-66
2023/10/25 04:33:41;;;;;;;21.93;21.20;;;11.00;99.90;;;;;;5036701;28;20251;-61
2023/10/25 04:36:08;;;;;;;21.37;20.67;;;11.00;99.90;;;;;;5039591;28;20300;-61
2023/10/25 04:38:35;;;;;;;22.57;21.77;;;11.10;99.90;;;;;;5038918;28;20304;-61
2023/10/25 04:41:02;;;;;;;20.00;19.30;;;11.10;99.90;;;;;;5038559;28;20220;-62
2023/10/25 04:43:29;;;;;;;20.63;19.93;;;11.20;99.90;;;;;;5040823;28;20344;-64
2023/10/25 04:45:56;;;;;;;20.60;19.90;;;11.20;99.90;;;;;;5043422;28;20625;-66
2023/10/25 04:48:23;;;;;;;20.97;20.27;;;11.30;99.90;;;;;;5040191;28;20634;-66
2023/10/25 04:50:51;;;;;;;19.53;18.83;;;11.30;99.90;;;;;;5035960;28;20215;-64
2023/10/25 04:53:18;;;;;;;20.77;20.07;;;11.30;99.90;;;;;;5034689;28;20616;-64
2023/10/25 04:55:45;;;;;;;20.07;19.37;;;11.30;99.90;;;;;;5034453;28;20212;-64
2023/10/25 04:58:12;;;;;;;21.90;21.10;;;11.20;99.90;;;;;;5034889;28;20211;-65
2023/10/25 05:00:39;;;;;;;18.83;18.23;;;11.30;99.90;;;;;;5034907;28;20213;-63
2023/10/25 05:03:10;;;;;;;17.83;17.23;;;11.20;99.90;;;;;;5035116;28;20236;-65
2023/10/25 05:05:37;;;;;;;19.37;18.67;;;11.20;99.90;;;;;;5043481;28;20224;-65
2023/10/25 05:08:06;;;;;;;19.33;18.63;;;11.20;99.90;;;;;;5044029;28;20255;-64
2023/10/25 05:10:33;;;;;;;19.20;18.57;;;11.10;99.90;;;;;;5043901;28;20209;-66
2023/10/25 05:13:01;;;;;;;19.77;19.07;;;11.10;99.90;;;;;;5041696;28;20266;-66
2023/10/25 05:15:28;;;;;;;18.87;18.23;;;11.10;99.90;;;;;;5035619;28;20244;-64
2023/10/25 05:17:55;;;;;;;21.40;20.67;;;11.10;99.90;;;;;;5034758;28;20208;-64
2023/10/25 05:20:23;;;;;;;19.73;19.03;;;11.10;99.90;;;;;;5033868;28;20212;-66
2023/10/25 05:22:51;;;;;;;19.23;18.60;;;11.00;99.90;;;;;;5032364;28;20232;-64
2023/10/25 05:25:21;;;;;;;18.63;18.03;;;11.00;99.90;;;;;;5033158;28;20219;-66
2023/10/25 05:27:49;;;;;;;19.33;18.67;;;11.00;99.90;;;;;;5031995;28;20708;-64
2023/10/25 05:30:19;;;;;;;18.90;18.27;;;11.00;99.90;;;;;;5032889;28;20213;-65
2023/10/25 05:32:47;;;;;;;18.67;17.97;;;11.10;99.90;;;;;;5033544;28;20270;-65
2023/10/25 05:35:15;;;;;;;18.17;17.53;;;11.00;99.90;;;;;;5033680;28;20295;-65
2023/10/25 05:37:42;;;;;;;18.73;18.10;;;11.00;99.90;;;;;;5034086;28;20216;-64
2023/10/25 05:40:10;;;;;;;17.17;16.57;;;11.00;99.90;;;;;;5032718;28;20219;-65
2023/10/25 05:42:46;;;;;;;16.80;16.20;;;11.00;99.90;;;;;;5032377;28;20232;-65
2023/10/25 05:45:13;;;;;;;17.77;17.17;;;11.10;99.90;;;;;;5032063;28;20288;-65
2023/10/25 05:47:40;;;;;;;18.27;17.67;;;11.10;99.90;;;;;;5031851;28;20208;-65
2023/10/25 05:50:10;;;;;;;16.83;16.23;;;11.10;99.90;;;;;;5031886;28;20251;-64
2023/10/25 05:52:38;;;;;;;19.43;18.77;;;11.10;99.90;;;;;;5031078;28;20267;-65
2023/10/25 05:55:06;;;;;;;17.60;17.00;;;11.10;99.90;;;;;;5029079;28;20936;-65
2023/10/25 05:57:33;;;;;;;16.97;16.37;;;11.10;99.90;;;;;;5030810;28;20208;-64
2023/10/25 06:00:02;;;;;;;16.87;16.27;;;11.10;99.90;;;;;;5029731;28;20219;-65
2023/10/25 06:02:29;;;;;;;14.77;14.27;;;11.10;99.90;;;;;;5030825;28;20707;-65
2023/10/25 06:04:56;;;;;;;21.93;21.17;;;11.10;99.90;;;;;;5031213;28;20227;-64
2023/10/25 06:07:24;;;;;;;17.57;16.97;;;11.10;99.90;;;;;;5030482;28;20220;-66
2023/10/25 06:09:51;;;;;;;16.50;15.90;;;11.10;99.90;;;;;;5031008;28;20208;-65
2023/10/25 06:12:20;;;;;;;14.97;14.37;;;11.10;99.90;;;;;;5030827;28;20228;-66
2023/10/25 06:14:47;;;;;;;13.57;13.07;;;11.10;99.90;;;;;;5030857;28;20209;-64
2023/10/25 06:17:15;;;;;;;14.60;14.10;;;11.10;99.90;;;;;;5031201;28;20208;-65
2023/10/25 06:19:42;;;;;;;13.57;13.07;;;11.20;99.90;;;;;;5031137;28;20208;-65
2023/10/25 06:22:08;;;;;;;13.50;13.10;;;11.20;99.90;;;;;;5031208;28;20232;-66
2023/10/25 06:24:35;;;;;;;13.23;12.83;;;11.30;99.90;;;;;;5030691;28;20737;-64
2023/10/25 06:27:02;;;;;;;13.03;12.63;;;11.30;99.90;;;;;;5030944;28;20212;-65
2023/10/25 06:29:28;;;;;;;13.10;12.67;;;11.30;99.90;;;;;;5030911;28;20633;-64
2023/10/25 06:31:55;;;;;;;12.73;12.33;;;11.40;99.90;;;;;;5030679;28;20209;-65
2023/10/25 06:34:23;;;;;;;12.53;12.03;;;11.40;99.90;;;;;;5031839;28;20215;-65
2023/10/25 06:36:50;;;;;;;12.90;12.50;;;11.40;99.90;;;;;;5031406;28;20212;-64
2023/10/25 06:39:18;;;;;;;13.20;12.70;;;11.50;99.90;;;;;;5030775;28;20663;-65
2023/10/25 06:41:45;;;;;;;12.57;12.17;;;11.50;99.90;;;;;;5030930;28;20212;-66
2023/10/25 06:44:12;;;;;;;12.70;12.20;;;11.60;99.90;;;;;;5031440;28;20756;-64
2023/10/25 06:46:39;;;;;;;11.77;11.37;;;11.60;99.90;;;;;;5031647;28;20220;-66
2023/10/25 06:49:07;;;;;;;12.40;12.00;;;11.60;99.90;;;;;;5031863;28;20347;-65
2023/10/25 06:51:36;;;;;;;12.57;12.13;;;11.60;99.90;;;;;;5030560;28;20208;-65
2023/10/25 06:54:03;;;;;;;12.63;12.23;;;11.60;99.90;;;;;;5030293;28;20374;-65
2023/10/25 06:56:30;;;;;;;12.00;11.60;;;11.60;99.90;;;;;;5030756;28;20789;-64
2023/10/25 06:58:57;;;;;;;12.67;12.27;;;11.60;99.90;;;;;;5030017;28;20212;-65
2023/10/25 07:01:27;;;;;;;12.30;11.90;;;11.60;99.90;;;;;;5029932;28;20216;-65
2023/10/25 07:03:57;;;;;;;12.33;11.83;;;11.70;99.90;;;;;;5030318;28;20263;-65
2023/10/25 07:06:24;;;;;;;12.17;11.77;;;11.70;99.90;;;;;;5030330;28;20581;-65
2023/10/25 07:08:53;;;;;;;12.10;11.60;;;11.70;99.90;;;;;;5030494;28;20299;-65
2023/10/25 07:11:19;;;;;;;12.13;11.73;;;11.80;99.90;;;;;;5030199;28;20215;-65
2023/10/25 07:13:46;;;;;;;11.80;11.40;;;11.80;99.90;;;;;;5030745;28;20228;-65
2023/10/25 07:16:13;;;;;;;11.30;10.90;;;11.70;99.90;;;;;;5027813;28;20390;-65
2023/10/25 07:18:40;;;;;;;12.00;11.60;;;11.80;99.90;;;;;;5031198;28;20319;-65
2023/10/25 07:21:08;;;;;;;12.70;12.30;;;11.80;99.90;;;;;;5030248;28;20243;-64
2023/10/25 07:23:35;;;;;;;11.80;11.40;;;11.80;99.90;;;;;;5030604;28;20225;-65
2023/10/25 07:26:03;;;;;;;11.87;11.27;;;11.90;99.90;;;;;;5030850;28;20208;-65
2023/10/25 07:28:29;;;;;;;11.93;11.53;;;12.00;99.90;;;;;;5032667;28;20224;-65
2023/10/25 07:30:56;;;;;;;11.67;11.27;;;12.00;99.90;;;;;;5034196;28;20205;-65
2023/10/25 07:33:24;;;;;;;12.03;11.63;;;12.20;99.90;;;;;;5035898;28;20301;-66
2023/10/25 07:35:50;;;;;;;12.17;11.77;;;12.20;99.90;;;;;;5042948;28;20311;-64
2023/10/25 07:38:17;;;;;;;12.30;11.90;;;12.30;99.90;;;;;;5046790;28;20212;-66
2023/10/25 07:40:44;;;;;;;12.77;12.37;;;12.30;99.90;;;;;;5039268;28;20212;-65
2023/10/25 07:43:12;;;;;;;12.40;12.00;;;12.30;99.90;;;;;;5034628;28;20229;-65
2023/10/25 07:45:39;;;;;;;13.30;12.80;;;12.40;99.90;;;;;;5035260;28;20208;-65
2023/10/25 07:48:06;;;;;;;12.40;12.00;;;12.30;99.90;;;;;;5034887;28;20668;-66
2023/10/25 07:50:34;;;;;;;12.57;12.17;;;12.40;99.90;;;;;;5034377;28;20217;-65
2023/10/25 07:53:01;;;;;;;12.43;12.03;;;12.40;99.90;;;;;;5033792;28;20228;-65
2023/10/25 07:55:28;;;;;;;12.57;12.17;;;12.50;99.90;;;;;;5034208;28;20209;-65
2023/10/25 07:57:54;;;;;;;13.03;12.63;;;12.50;99.90;;;;;;5034716;28;20242;-66
2023/10/25 08:00:23;;;;;;;13.57;13.07;;;12.50;99.90;;;;;;5035823;28;20693;-66
2023/10/25 08:02:49;;;;;;;12.60;12.20;;;12.50;99.90;;;;;;5035225;28;20240;-65
2023/10/25 08:05:16;;;;;;;13.17;12.77;;;12.60;99.90;;;;;;5036534;28;20271;-65
2023/10/25 08:07:45;;;;;;;13.13;12.70;;;12.60;99.90;;;;;;5035749;28;20558;-65
2023/10/25 08:10:12;;;;;;;14.57;14.07;;;12.60;99.90;;;;;;5034379;28;20284;-65
2023/10/25 08:12:38;;;;;;;13.70;13.20;;;12.60;99.90;;;;;;5033974;28;20225;-65
2023/10/25 08:15:07;;;;;;;13.87;13.37;;;12.60;99.90;;;;;;5033390;28;20598;-64
2023/10/25 08:17:35;;;;;;;13.97;13.47;;;12.60;99.90;;;;;;5039176;28;20219;-65
2023/10/25 08:20:01;;;;;;;13.90;13.40;;;12.60;99.90;;;;;;5039261;28;20235;-65
2023/10/25 08:22:28;;;;;;;14.03;13.53;;;12.70;99.90;;;;;;5035848;28;20288;-66
2023/10/25 08:24:55;;;;;;;13.97;13.47;;;12.80;99.90;;;;;;5033400;28;20667;-65
2023/10/25 08:27:21;;;;;;;15.33;14.83;;;12.80;99.90;;;;;;5033487;28;20219;-64
2023/10/25 08:29:48;;;;;;;13.97;13.47;;;12.90;99.90;;;;;;5033593;28;20213;-65
2023/10/25 08:32:15;;;;;;;13.53;13.13;;;12.90;99.90;;;;;;5032788;28;20233;-65
2023/10/25 08:34:47;;;;;;;15.90;15.40;;;13.00;99.90;;;;;;5033287;28;20235;-64
2023/10/25 08:37:14;;;;;;;15.40;14.90;;;13.00;99.90;;;;;;5033325;28;20212;-65
2023/10/25 08:39:41;;;;;;;14.13;13.63;;;13.10;99.90;;;;;;5033425;28;20291;-64
2023/10/25 08:42:11;;;;;;;13.73;13.23;;;13.10;99.90;;;;;;5033111;28;20232;-64
2023/10/25 08:44:40;;;;;;;14.07;13.57;;;13.10;99.90;;;;;;5028259;28;20268;-65
2023/10/25 08:47:08;;;;;;;12.90;12.50;;;13.20;99.90;;;;;;5032185;28;21617;-65
2023/10/25 08:49:35;;;;;;;13.17;12.67;;;13.30;99.90;;;;;;5032779;28;20213;-65
2023/10/25 08:52:04;;;;;;;12.63;12.23;;;13.30;99.90;;;;;;5033600;28;20757;-64
2023/10/25 08:54:30;;;;;;;12.00;11.60;;;13.30;99.90;;;;;;5033272;28;20212;-66
2023/10/25 08:56:57;;;;;;;12.13;11.73;;;13.40;99.90;;;;;;5033546;28;20227;-65
2023/10/25 08:59:24;;;;;;;12.40;12.00;;;13.50;99.90;;;;;;5033838;28;20263;-66
2023/10/25 09:01:51;;;;;;;12.03;11.63;;;13.50;99.90;;;;;;5032591;28;20223;-65
2023/10/25 09:04:17;;;;;;;12.70;12.20;;;13.50;99.90;;;;;;5032094;28;20252;-65
2023/10/25 09:06:45;;;;;;;12.43;12.03;;;13.60;99.90;;;;;;5032588;28;20209;-65
2023/10/25 09:09:13;;;;;;;12.20;11.80;;;13.50;99.90;;;;;;5032521;28;20638;-65
2023/10/25 09:11:42;;;;;;;12.30;11.90;;;13.50;99.90;;;;;;5032801;28;20242;-65
2023/10/25 09:14:10;;;;;;;12.27;11.87;;;13.50;99.90;;;;;;5033440;28;20225;-65
2023/10/25 09:16:40;;;;;;;12.80;12.40;;;13.50;99.90;;;;;;5032598;28;20291;-65
2023/10/25 09:19:07;;;;;;;12.97;12.57;;;13.50;99.90;;;;;;5032333;28;20209;-65
2023/10/25 09:21:33;;;;;;;12.73;12.33;;;13.50;99.90;;;;;;5032041;28;20698;-65
2023/10/25 09:24:02;;;;;;;13.70;13.20;;;13.60;99.90;;;;;;5032368;28;20269;-65
2023/10/25 09:26:35;;;;;;;13.40;12.90;;;13.70;99.90;;;;;;5032605;28;20249;-65
2023/10/25 09:29:03;;;;;;;13.67;13.17;;;13.80;99.90;;;;;;5031232;28;20201;-66
2023/10/25 09:31:32;;;;;;;13.17;12.67;;;13.90;99.90;;;;;;5038822;28;20471;-65
2023/10/25 09:34:00;;;;;;;12.10;11.70;;;14.00;99.90;;;;;;5046445;28;20235;-66
2023/10/25 09:36:28;;;;;;;13.90;13.40;;;14.00;99.90;;;;;;5045491;28;20316;-66
2023/10/25 09:38:56;;;;;;;13.37;12.87;;;14.00;99.90;;;;;;5039952;28;20546;-66
2023/10/25 09:41:26;;;;;;;17.33;16.73;;;14.10;99.90;;;;;;5032239;28;20209;-63
2023/10/25 09:43:59;;;;;;;12.97;12.47;;;14.10;99.90;;;;;;5032216;28;20229;-66
2023/10/25 09:46:30;;;;;;;14.00;13.50;;;14.20;99.90;;;;;;5032024;28;20660;-66
2023/10/25 09:49:07;;;;;;;12.63;12.23;;;14.20;99.90;;;;;;5031444;28;20239;-65
2023/10/25 09:51:51;;;;;;;13.00;12.50;;;14.30;99.90;;;;;;5031938;28;20252;-65
2023/10/25 09:54:24;;;;;;;14.17;13.60;;;14.50;99.90;;;;;;5031320;28;20215;-65
2023/10/25 09:56:54;;;;;;;13.50;13.00;;;14.50;99.90;;;;;;5031821;28;20276;-65
2023/10/25 09:59:24;;;;;;;14.30;13.80;;;14.60;99.90;;;;;;5031460;28;20277;-66
2023/10/25 10:01:51;;;;;;;13.17;12.77;;;14.60;99.90;;;;;;5031154;28;20225;-65
2023/10/25 10:04:31;;;;;;;13.80;13.30;;;14.50;99.90;;;;;;5031102;28;20338;-65
2023/10/25 10:07:09;;;;;;;16.53;15.83;;;14.60;99.90;;;;;;5031628;28;20285;-66
2023/10/25 10:09:41;;;;;;;12.80;12.30;;;14.50;99.90;;;;;;5031777;28;20312;-64
2023/10/25 10:12:10;;;;;;;12.57;12.17;;;14.50;99.90;;;;;;5031442;28;20264;-65
2023/10/25 10:14:39;;;;;;;12.03;11.63;;;14.60;99.90;;;;;;5031449;28;20215;-65
2023/10/25 10:17:09;;;;;;;12.33;11.93;;;14.50;99.90;;;;;;5031386;28;20216;-65
2023/10/25 10:19:39;;;;;;;12.60;12.20;;;14.60;99.90;;;;;;5031544;28;20212;-66
2023/10/25 10:22:07;;;;;;;13.20;12.70;;;14.70;99.90;;;;;;5031315;28;20236;-67
2023/10/25 10:24:44;;;;;;;13.40;12.90;;;14.80;99.90;;;;;;5031318;28;20256;-66
2023/10/25 10:27:12;;;;;;;13.80;13.30;;;14.90;99.90;;;;;;5032351;28;20216;-66
2023/10/25 10:29:42;;;;;;;14.20;13.70;;;15.10;99.90;;;;;;5032306;28;20573;-66
2023/10/25 10:32:09;;;;;;;16.97;16.37;;;15.20;99.90;;;;;;5031144;28;20695;-65
2023/10/25 10:34:47;;;;;;;14.73;14.23;;;15.40;99.90;;;;;;5031622;28;20672;-65
2023/10/25 10:37:16;;;;;;;16.07;15.50;;;15.60;99.90;;;;;;5030914;28;20679;-65
2023/10/25 10:40:14;;;;;;;15.57;15.07;;;15.90;99.90;;;;;;5032349;28;20209;-66
2023/10/25 10:42:41;;;;;;;15.73;15.17;;;16.30;99.90;;;;;;5030837;28;20268;-66
2023/10/25 10:45:12;;;;;;;14.80;14.20;;;16.60;99.90;;;;;;5032699;28;20251;-66
2023/10/25 10:47:41;;;;;;;15.47;14.97;;;16.60;99.90;;;;;;5031226;28;20226;-65
2023/10/25 10:50:11;;;;;;;13.73;13.23;;;16.60;99.90;;;;;;5031991;28;20212;-65
2023/10/25 10:52:38;;;;;;;13.00;12.60;;;16.70;99.90;;;;;;5035298;28;20290;-66
2023/10/25 10:55:06;;;;;;;14.27;13.77;;;16.80;99.90;;;;;;5033737;28;20204;-65
2023/10/25 10:57:32;;;;;;;12.40;11.90;;;16.80;99.90;;;;;;5031007;28;20663;-65
2023/10/25 11:00:01;;;;;;;13.30;12.90;;;16.90;99.90;;;;;;5030922;28;20205;-65
2023/10/25 11:02:29;;;;;;;13.17;12.77;;;16.90;99.90;;;;;;5030872;28;20274;-66
2023/10/25 11:04:56;;;;;;;13.03;12.63;;;16.90;99.90;;;;;;5030588;28;20296;-65
2023/10/25 11:07:23;;;;;;;13.50;13.00;;;16.90;99.90;;;;;;5030913;28;20224;-64
2023/10/25 11:09:49;;;;;;;13.40;13.00;;;16.90;99.90;;;;;;5031726;28;20574;-65
2023/10/25 11:12:16;;;;;;;13.53;13.10;;;16.90;99.90;;;;;;5037980;28;20238;-66
2023/10/25 11:14:44;;;;;;;12.50;12.10;;;16.80;99.90;;;;;;5038181;28;20219;-66
2023/10/25 11:17:11;;;;;;;12.53;12.13;;;16.80;99.90;;;;;;5037595;28;20255;-65
2023/10/25 11:19:39;;;;;;;12.47;12.07;;;16.80;99.90;;;;;;5035887;28;20211;-67
2023/10/25 11:22:06;;;;;;;13.27;12.87;;;16.80;99.90;;;;;;5035433;28;20228;-66
2023/10/25 11:24:39;;;;;;;12.67;12.27;;;16.80;99.90;;;;;;5037033;28;20612;-66
2023/10/25 11:27:06;;;;;;;13.53;13.03;;;16.70;99.90;;;;;;5036925;28;20671;-66
2023/10/25 11:29:33;;;;;;;13.83;13.33;;;16.70;99.90;;;;;;5035516;28;20216;-66
2023/10/25 11:32:04;;;;;;;13.50;13.03;;;16.60;99.90;;;;;;5034751;28;20208;-66
2023/10/25 11:34:32;;;;;;;14.33;13.83;;;16.60;99.90;;;;;;5036340;28;20211;-66
2023/10/25 11:37:01;;;;;;;12.67;12.27;;;16.50;99.90;;;;;;5056396;28;20220;-65
2023/10/25 11:39:32;;;;;;;13.77;13.27;;;16.40;99.90;;;;;;5057157;28;20208;-65
2023/10/25 11:41:59;;;;;;;13.73;13.23;;;16.40;99.90;;;;;;5057298;28;20320;-65
2023/10/25 11:44:27;;;;;;;13.60;13.10;;;16.30;99.90;;;;;;5055586;28;20248;-67
2023/10/25 11:46:55;;;;;;;13.73;13.23;;;16.30;99.90;;;;;;5055694;28;20216;-66
2023/10/25 11:49:22;;;;;;;13.17;12.77;;;16.20;99.90;;;;;;5052392;28;20232;-65
2023/10/25 11:51:49;;;;;;;12.73;12.33;;;16.20;99.90;;;;;;5040890;28;20212;-65
2023/10/25 11:54:17;;;;;;;13.50;13.00;;;16.10;99.90;;;;;;5040462;28;20690;-66
2023/10/25 11:56:44;;;;;;;12.53;12.13;;;16.10;99.90;;;;;;5039316;28;20224;-65
2023/10/25 11:59:10;;;;;;;12.27;11.87;;;16.20;99.90;;;;;;5035490;28;20219;-66
2023/10/25 12:01:37;;;;;;;11.77;11.37;;;16.20;99.90;;;;;;5035086;28;20236;-66
2023/10/25 12:04:04;;;;;;;12.47;12.07;;;16.20;99.90;;;;;;5035132;28;20281;-65
2023/10/25 12:06:31;;;;;;;12.50;12.10;;;16.10;99.90;;;;;;5035426;28;20247;-66
2023/10/25 12:08:59;;;;;;;12.70;12.30;;;16.00;99.90;;;;;;5033933;28;20243;-65
2023/10/25 12:11:27;;;;;;;12.23;11.83;;;16.00;99.90;;;;;;5033673;28;20661;-66
2023/10/25 12:13:54;;;;;;;12.70;12.30;;;15.90;99.90;;;;;;5035004;28;20593;-65
2023/10/25 12:16:21;;;;;;;13.90;13.40;;;15.80;99.90;;;;;;5035263;28;20644;-66
2023/10/25 12:18:47;;;;;;;13.83;13.33;;;15.80;99.90;;;;;;5034891;28;20208;-65
2023/10/25 12:21:14;;;;;;;12.20;11.80;;;15.80;99.90;;;;;;5035095;28;20216;-65
2023/10/25 12:23:41;;;;;;;15.93;15.43;;;15.80;99.90;;;;;;5034988;28;20233;-65
2023/10/25 12:26:09;;;;;;;15.40;14.90;;;15.90;99.90;;;;;;5034834;28;20227;-67
2023/10/25 12:28:37;;;;;;;14.43;13.93;;;15.90;99.90;;;;;;5034622;28;20212;-66
2023/10/25 12:31:04;;;;;;;13.50;13.00;;;15.90;99.90;;;;;;5036311;28;20220;-66